sensor_id;sensor_type;location;lat;lon;timestamp;pressure;altitude;pressure_sealevel;temperature;humidity
34370;BME280;20635;55.812;37.560;2023-08-12T00:00:27;99717.00;;;26.17;64.41
34370;BME280;20635;55.812;37.560;2023-08-12T00:02:53;99725.75;;;26.15;64.54
34370;BME280;20635;55.812;37.560;2023-08-12T00:05:19;99704.97;;;26.16;64.42
34370;BME280;20635;55.812;37.560;2023-08-12T00:07:45;99722.63;;;26.17;64.33
34370;BME280;20635;55.812;37.560;2023-08-12T00:10:11;99702.47;;;26.15;64.19
34370;BME280;20635;55.812;37.560;2023-08-12T00:12:38;99696.84;;;26.15;64.54
34370;BME280;20635;55.812;37.560;2023-08-12T00:15:05;99696.03;;;26.14;64.63
34370;BME280;20635;55.812;37.560;2023-08-12T00:17:32;99696.03;;;26.14;64.69
34370;BME280;20635;55.812;37.560;2023-08-12T00:19:59;99696.38;;;26.13;64.58
34370;BME280;20635;55.812;37.560;2023-08-12T00:22:25;99694.38;;;26.13;64.72
34370;BME280;20635;55.812;37.560;2023-08-12T00:24:51;99694.38;;;26.13;64.44
34370;BME280;20635;55.812;37.560;2023-08-12T00:27:17;99714.88;;;26.14;64.13
34370;BME280;20635;55.812;37.560;2023-08-12T00:29:43;99707.59;;;26.13;64.43
34370;BME280;20635;55.812;37.560;2023-08-12T00:32:09;99692.75;;;26.12;64.50
34370;BME280;20635;55.812;37.560;2023-08-12T00:34:36;99702.00;;;26.13;64.26
34370;BME280;20635;55.812;37.560;2023-08-12T00:37:02;99703.16;;;26.12;64.17
34370;BME280;20635;55.812;37.560;2023-08-12T00:39:28;99696.69;;;26.11;64.37
34370;BME280;20635;55.812;37.560;2023-08-12T00:41:54;99697.53;;;26.12;64.22
34370;BME280;20635;55.812;37.560;2023-08-12T00:44:20;99697.53;;;26.12;64.26
34370;BME280;20635;55.812;37.560;2023-08-12T00:46:47;99685.47;;;26.11;64.15
34370;BME280;20635;55.812;37.560;2023-08-12T00:49:13;99696.69;;;26.11;64.08
34370;BME280;20635;55.812;37.560;2023-08-12T00:51:41;99707.59;;;26.13;64.42
34370;BME280;20635;55.812;37.560;2023-08-12T00:54:09;99700.34;;;26.12;64.25
34370;BME280;20635;55.812;37.560;2023-08-12T00:56:38;99699.50;;;26.11;63.84
34370;BME280;20635;55.812;37.560;2023-08-12T00:59:05;99707.59;;;26.13;64.24
34370;BME280;20635;55.812;37.560;2023-08-12T01:01:33;99705.97;;;26.12;64.28
34370;BME280;20635;55.812;37.560;2023-08-12T01:03:59;99711.59;;;26.12;64.00
34370;BME280;20635;55.812;37.560;2023-08-12T01:06:25;99717.19;;;26.12;64.07
34370;BME280;20635;55.812;37.560;2023-08-12T01:08:51;99712.72;;;26.11;63.60
34370;BME280;20635;55.812;37.560;2023-08-12T01:11:28;99711.25;;;26.13;63.82
34370;BME280;20635;55.812;37.560;2023-08-12T01:14:04;99705.63;;;26.13;63.81
34370;BME280;20635;55.812;37.560;2023-08-12T01:16:33;99701.50;;;26.11;63.29
34370;BME280;20635;55.812;37.560;2023-08-12T01:19:05;99693.88;;;26.11;63.26
34370;BME280;20635;55.812;37.560;2023-08-12T01:21:33;99686.63;;;26.10;63.14
34370;BME280;20635;55.812;37.560;2023-08-12T01:24:01;99681.84;;;26.11;63.35
34370;BME280;20635;55.812;37.560;2023-08-12T01:26:27;99680.19;;;26.10;63.14
34370;BME280;20635;55.812;37.560;2023-08-12T01:28:53;99674.56;;;26.10;63.27
34370;BME280;20635;55.812;37.560;2023-08-12T01:31:26;99695.56;;;26.12;63.40
34370;BME280;20635;55.812;37.560;2023-08-12T01:33:59;99702.31;;;26.11;63.09
34370;BME280;20635;55.812;37.560;2023-08-12T01:36:29;99715.53;;;26.11;63.13
34370;BME280;20635;55.812;37.560;2023-08-12T01:38:59;99725.63;;;26.12;63.21
34370;BME280;20635;55.812;37.560;2023-08-12T01:41:26;99715.53;;;26.11;62.98
34370;BME280;20635;55.812;37.560;2023-08-12T01:43:52;99714.72;;;26.10;62.84
34370;BME280;20635;55.812;37.560;2023-08-12T01:46:18;99709.09;;;26.10;62.91
34370;BME280;20635;55.812;37.560;2023-08-12T01:48:44;99706.28;;;26.10;62.92
34370;BME280;20635;55.812;37.560;2023-08-12T01:51:11;99693.88;;;26.11;63.23
34370;BME280;20635;55.812;37.560;2023-08-12T01:53:37;99694.72;;;26.12;62.85
34370;BME280;20635;55.812;37.560;2023-08-12T01:56:03;99686.63;;;26.10;63.07
34370;BME280;20635;55.812;37.560;2023-08-12T01:58:29;99677.38;;;26.10;62.71
34370;BME280;20635;55.812;37.560;2023-08-12T02:00:55;99676.72;;;26.13;63.08
34370;BME280;20635;55.812;37.560;2023-08-12T02:03:21;99677.03;;;26.11;62.57
34370;BME280;20635;55.812;37.560;2023-08-12T02:05:47;99668.59;;;26.11;62.92
34370;BME280;20635;55.812;37.560;2023-08-12T02:08:13;99659.38;;;26.11;62.84
34370;BME280;20635;55.812;37.560;2023-08-12T02:10:39;99661.03;;;26.12;63.02
34370;BME280;20635;55.812;37.560;2023-08-12T02:13:05;99650.13;;;26.10;62.96
34370;BME280;20635;55.812;37.560;2023-08-12T02:15:31;99657.38;;;26.11;63.07
34370;BME280;20635;55.812;37.560;2023-08-12T02:17:58;99650.63;;;26.12;62.98
34370;BME280;20635;55.812;37.560;2023-08-12T02:20:24;99636.91;;;26.11;63.17
34370;BME280;20635;55.812;37.560;2023-08-12T02:22:50;99634.09;;;26.11;63.16
34370;BME280;20635;55.812;37.560;2023-08-12T02:25:16;99638.56;;;26.12;63.08
34370;BME280;20635;55.812;37.560;2023-08-12T02:27:42;99644.19;;;26.12;63.66
34370;BME280;20635;55.812;37.560;2023-08-12T02:30:08;99642.50;;;26.11;63.52
34370;BME280;20635;55.812;37.560;2023-08-12T02:32:34;99645.31;;;26.11;63.39
34370;BME280;20635;55.812;37.560;2023-08-12T02:35:00;99646.13;;;26.11;63.40
34370;BME280;20635;55.812;37.560;2023-08-12T02:37:26;99654.56;;;26.11;63.38
34370;BME280;20635;55.812;37.560;2023-08-12T02:39:51;99656.56;;;26.11;63.54
34370;BME280;20635;55.812;37.560;2023-08-12T02:42:17;99675.06;;;26.12;63.52
34370;BME280;20635;55.812;37.560;2023-08-12T02:44:43;99648.13;;;26.11;63.40
34370;BME280;20635;55.812;37.560;2023-08-12T02:47:09;99661.03;;;26.12;63.39
34370;BME280;20635;55.812;37.560;2023-08-12T02:49:35;99664.16;;;26.10;63.74
34370;BME280;20635;55.812;37.560;2023-08-12T02:52:01;99659.03;;;26.12;63.26
34370;BME280;20635;55.812;37.560;2023-08-12T02:54:29;99667.78;;;26.11;63.58
34370;BME280;20635;55.812;37.560;2023-08-12T02:56:55;99668.97;;;26.10;63.27
34370;BME280;20635;55.812;37.560;2023-08-12T02:59:21;99679.03;;;26.11;63.60
34370;BME280;20635;55.812;37.560;2023-08-12T03:01:46;99669.78;;;26.10;63.43
34370;BME280;20635;55.812;37.560;2023-08-12T03:04:12;99676.22;;;26.11;63.31
34370;BME280;20635;55.812;37.560;2023-08-12T03:06:38;99676.56;;;26.09;63.13
34370;BME280;20635;55.812;37.560;2023-08-12T03:09:04;99676.22;;;26.11;63.06
34370;BME280;20635;55.812;37.560;2023-08-12T03:11:30;99668.97;;;26.10;63.29
34370;BME280;20635;55.812;37.560;2023-08-12T03:13:57;99669.78;;;26.10;63.19
34370;BME280;20635;55.812;37.560;2023-08-12T03:16:25;99668.13;;;26.09;62.96
34370;BME280;20635;55.812;37.560;2023-08-12T03:18:51;99656.09;;;26.09;63.07
34370;BME280;20635;55.812;37.560;2023-08-12T03:21:18;99654.09;;;26.09;63.11
34370;BME280;20635;55.812;37.560;2023-08-12T03:23:44;99662.53;;;26.09;63.11
34370;BME280;20635;55.812;37.560;2023-08-12T03:26:10;99645.66;;;26.09;62.97
34370;BME280;20635;55.812;37.560;2023-08-12T03:28:37;99649.31;;;26.10;63.29
34370;BME280;20635;55.812;37.560;2023-08-12T03:31:03;99640.88;;;26.10;63.14
34370;BME280;20635;55.812;37.560;2023-08-12T03:33:30;99626.84;;;26.10;63.21
34370;BME280;20635;55.812;37.560;2023-08-12T03:35:58;99614.78;;;26.09;63.58
34370;BME280;20635;55.812;37.560;2023-08-12T03:38:24;99609.16;;;26.09;63.58
34370;BME280;20635;55.812;37.560;2023-08-12T03:40:50;99594.31;;;26.09;63.49
34370;BME280;20635;55.812;37.560;2023-08-12T03:43:17;99584.72;;;26.10;63.39
34370;BME280;20635;55.812;37.560;2023-08-12T03:45:44;99584.72;;;26.10;63.05
34370;BME280;20635;55.812;37.560;2023-08-12T03:48:12;99590.31;;;26.10;63.50
34370;BME280;20635;55.812;37.560;2023-08-12T03:50:40;99605.53;;;26.09;63.28
34370;BME280;20635;55.812;37.560;2023-08-12T03:53:07;99611.97;;;26.09;63.19
34370;BME280;20635;55.812;37.560;2023-08-12T03:55:34;99618.75;;;26.08;63.25
34370;BME280;20635;55.812;37.560;2023-08-12T03:58:01;99624.38;;;26.08;63.30
34370;BME280;20635;55.812;37.560;2023-08-12T04:00:28;99619.91;;;26.07;63.33
34370;BME280;20635;55.812;37.560;2023-08-12T04:02:58;99628.00;;;26.09;63.29
34370;BME280;20635;55.812;37.560;2023-08-12T04:05:24;99623.88;;;26.06;63.17
34370;BME280;20635;55.812;37.560;2023-08-12T04:07:49;99625.88;;;26.05;63.46
34370;BME280;20635;55.812;37.560;2023-08-12T04:10:15;99631.47;;;26.05;63.33
34370;BME280;20635;55.812;37.560;2023-08-12T04:12:42;99648.31;;;26.05;63.66
34370;BME280;20635;55.812;37.560;2023-08-12T04:15:08;99648.31;;;26.05;63.75
34370;BME280;20635;55.812;37.560;2023-08-12T04:17:34;99651.94;;;26.06;63.20
34370;BME280;20635;55.812;37.560;2023-08-12T04:20:02;99641.88;;;26.05;63.31
34370;BME280;20635;55.812;37.560;2023-08-12T04:22:31;99654.28;;;26.04;63.45
34370;BME280;20635;55.812;37.560;2023-08-12T04:24:57;99656.28;;;26.03;63.57
34370;BME280;20635;55.812;37.560;2023-08-12T04:27:23;99665.53;;;26.04;63.60
34370;BME280;20635;55.812;37.560;2023-08-12T04:29:50;99659.91;;;26.04;63.28
34370;BME280;20635;55.812;37.560;2023-08-12T04:32:16;99648.69;;;26.04;63.11
34370;BME280;20635;55.812;37.560;2023-08-12T04:34:44;99645.88;;;26.04;63.06
34370;BME280;20635;55.812;37.560;2023-08-12T04:37:10;99645.88;;;26.04;62.91
34370;BME280;20635;55.812;37.560;2023-08-12T04:39:37;99635.81;;;26.03;62.88
34370;BME280;20635;55.812;37.560;2023-08-12T04:42:03;99606.88;;;26.02;63.01
34370;BME280;20635;55.812;37.560;2023-08-12T04:44:29;99624.56;;;26.03;62.85
34370;BME280;20635;55.812;37.560;2023-08-12T04:46:55;99652.31;;;26.04;62.41
34370;BME280;20635;55.812;37.560;2023-08-12T04:49:21;99663.03;;;26.02;62.41
34370;BME280;20635;55.812;37.560;2023-08-12T04:51:51;99660.22;;;26.02;62.33
34370;BME280;20635;55.812;37.560;2023-08-12T04:54:17;99655.47;;;26.03;62.48
34370;BME280;20635;55.812;37.560;2023-08-12T04:56:43;99658.59;;;26.01;62.47
34370;BME280;20635;55.812;37.560;2023-08-12T04:59:10;99671.81;;;26.01;62.58
34370;BME280;20635;55.812;37.560;2023-08-12T05:01:36;99668.66;;;26.02;62.58
34370;BME280;20635;55.812;37.560;2023-08-12T05:04:03;99661.38;;;26.01;62.52
34370;BME280;20635;55.812;37.560;2023-08-12T05:06:29;99678.25;;;26.01;62.57
34370;BME280;20635;55.812;37.560;2023-08-12T05:08:55;99692.28;;;26.01;62.38
34370;BME280;20635;55.812;37.560;2023-08-12T05:11:21;99698.72;;;26.02;62.45
34370;BME280;20635;55.812;37.560;2023-08-12T05:13:47;99688.66;;;26.01;62.24
34370;BME280;20635;55.812;37.560;2023-08-12T05:16:13;99670.97;;;26.00;62.32
34370;BME280;20635;55.812;37.560;2023-08-12T05:18:39;99656.13;;;26.00;62.06
34370;BME280;20635;55.812;37.560;2023-08-12T05:21:04;99667.00;;;26.01;61.97
34370;BME280;20635;55.812;37.560;2023-08-12T05:23:30;99669.00;;;26.01;61.67
34370;BME280;20635;55.812;37.560;2023-08-12T05:25:56;99664.53;;;26.00;61.62
34370;BME280;20635;55.812;37.560;2023-08-12T05:28:22;99658.94;;;26.00;61.74
34370;BME280;20635;55.812;37.560;2023-08-12T05:30:48;99653.31;;;26.00;61.50
34370;BME280;20635;55.812;37.560;2023-08-12T05:33:14;99658.94;;;26.00;61.55
34370;BME280;20635;55.812;37.560;2023-08-12T05:35:40;99673.78;;;26.00;61.64
34370;BME280;20635;55.812;37.560;2023-08-12T05:38:06;99681.41;;;26.00;61.70
34370;BME280;20635;55.812;37.560;2023-08-12T05:40:31;99666.53;;;25.99;61.86
34370;BME280;20635;55.812;37.560;2023-08-12T05:42:57;99647.69;;;26.00;61.77
34370;BME280;20635;55.812;37.560;2023-08-12T05:45:23;99624.41;;;25.99;61.88
34370;BME280;20635;55.812;37.560;2023-08-12T05:47:49;99616.81;;;26.00;61.53
34370;BME280;20635;55.812;37.560;2023-08-12T05:50:15;99603.59;;;26.00;60.93
34370;BME280;20635;55.812;37.560;2023-08-12T05:52:40;99586.75;;;26.00;61.00
34370;BME280;20635;55.812;37.560;2023-08-12T05:55:06;99569.44;;;25.98;60.83
34370;BME280;20635;55.812;37.560;2023-08-12T05:57:32;99559.03;;;25.99;60.93
34370;BME280;20635;55.812;37.560;2023-08-12T05:59:58;99564.28;;;26.00;60.85
34370;BME280;20635;55.812;37.560;2023-08-12T06:02:25;99560.31;;;26.01;60.71
34370;BME280;20635;55.812;37.560;2023-08-12T06:04:51;99549.44;;;26.00;60.26
34370;BME280;20635;55.812;37.560;2023-08-12T06:07:17;99552.25;;;26.00;60.27
34370;BME280;20635;55.812;37.560;2023-08-12T06:09:44;99553.88;;;26.01;60.14
34370;BME280;20635;55.812;37.560;2023-08-12T06:12:09;99545.44;;;26.01;60.37
34370;BME280;20635;55.812;37.560;2023-08-12T06:14:37;99535.38;;;26.00;60.30
34370;BME280;20635;55.812;37.560;2023-08-12T06:17:03;99525.31;;;25.99;60.41
34370;BME280;20635;55.812;37.560;2023-08-12T06:19:29;99533.75;;;25.99;60.55
34370;BME280;20635;55.812;37.560;2023-08-12T06:21:55;99529.78;;;26.00;60.44
34370;BME280;20635;55.812;37.560;2023-08-12T06:24:21;99528.97;;;25.99;60.25
34370;BME280;20635;55.812;37.560;2023-08-12T06:26:47;99521.72;;;25.98;60.46
34370;BME280;20635;55.812;37.560;2023-08-12T06:29:13;99517.38;;;26.01;60.56
34370;BME280;20635;55.812;37.560;2023-08-12T06:31:39;99516.56;;;26.00;60.58
34370;BME280;20635;55.812;37.560;2023-08-12T06:34:04;99523.00;;;26.01;60.60
34370;BME280;20635;55.812;37.560;2023-08-12T06:36:30;99523.00;;;26.01;60.66
34370;BME280;20635;55.812;37.560;2023-08-12T06:38:56;99531.91;;;26.03;60.39
34370;BME280;20635;55.812;37.560;2023-08-12T06:41:22;99535.03;;;26.01;60.04
34370;BME280;20635;55.812;37.560;2023-08-12T06:43:48;99537.84;;;26.01;60.18
34370;BME280;20635;55.812;37.560;2023-08-12T06:46:14;99525.78;;;26.01;59.94
34370;BME280;20635;55.812;37.560;2023-08-12T06:48:40;99535.38;;;26.00;59.79
34370;BME280;20635;55.812;37.560;2023-08-12T06:51:06;99540.19;;;25.99;59.63
34370;BME280;20635;55.812;37.560;2023-08-12T06:53:38;99541.41;;;26.11;59.86
34370;BME280;20635;55.812;37.560;2023-08-12T06:56:04;99546.78;;;26.03;59.73
34370;BME280;20635;55.812;37.560;2023-08-12T06:58:30;99534.72;;;26.03;59.67
34370;BME280;20635;55.812;37.560;2023-08-12T07:00:56;99546.28;;;26.01;59.74
34370;BME280;20635;55.812;37.560;2023-08-12T07:03:25;99548.25;;;26.01;59.93
34370;BME280;20635;55.812;37.560;2023-08-12T07:05:52;99555.50;;;26.02;59.89
34370;BME280;20635;55.812;37.560;2023-08-12T07:08:18;99551.88;;;26.01;59.81
34370;BME280;20635;55.812;37.560;2023-08-12T07:10:44;99555.50;;;26.02;59.51
34370;BME280;20635;55.812;37.560;2023-08-12T07:13:10;99554.69;;;26.01;59.66
34370;BME280;20635;55.812;37.560;2023-08-12T07:15:36;99552.72;;;26.02;59.72
34370;BME280;20635;55.812;37.560;2023-08-12T07:18:02;99560.31;;;26.01;59.70
34370;BME280;20635;55.812;37.560;2023-08-12T07:20:28;99549.91;;;26.02;59.96
34370;BME280;20635;55.812;37.560;2023-08-12T07:22:54;99545.09;;;26.02;59.65
34370;BME280;20635;55.812;37.560;2023-08-12T07:25:21;99559.13;;;26.02;59.61
34370;BME280;20635;55.812;37.560;2023-08-12T07:27:47;99552.38;;;26.03;59.89
34370;BME280;20635;55.812;37.560;2023-08-12T07:30:14;99546.78;;;26.03;59.94
34370;BME280;20635;55.812;37.560;2023-08-12T07:32:40;99537.19;;;26.04;59.56
34370;BME280;20635;55.812;37.560;2023-08-12T07:35:06;99535.53;;;26.03;59.58
34370;BME280;20635;55.812;37.560;2023-08-12T07:37:32;99536.34;;;26.04;59.56
34370;BME280;20635;55.812;37.560;2023-08-12T07:39:58;99534.84;;;26.06;59.88
34370;BME280;20635;55.812;37.560;2023-08-12T07:42:24;99541.63;;;26.05;59.95
34370;BME280;20635;55.812;37.560;2023-08-12T07:44:50;99540.13;;;26.08;60.15
34370;BME280;20635;55.812;37.560;2023-08-12T07:47:16;99534.50;;;26.08;60.38
34370;BME280;20635;55.812;37.560;2023-08-12T07:49:42;99534.16;;;26.10;60.22
34370;BME280;20635;55.812;37.560;2023-08-12T07:52:09;99535.81;;;26.11;60.50
34370;BME280;20635;55.812;37.560;2023-08-12T07:54:35;99550.34;;;26.13;60.58
34370;BME280;20635;55.812;37.560;2023-08-12T07:57:01;99551.97;;;26.14;60.48
34370;BME280;20635;55.812;37.560;2023-08-12T07:59:27;99554.78;;;26.14;60.70
34370;BME280;20635;55.812;37.560;2023-08-12T08:01:53;99558.06;;;26.16;60.75
34370;BME280;20635;55.812;37.560;2023-08-12T08:04:19;99554.94;;;26.17;60.73
34370;BME280;20635;55.812;37.560;2023-08-12T08:06:45;99580.69;;;26.19;60.22
34370;BME280;20635;55.812;37.560;2023-08-12T08:09:11;99603.97;;;26.20;60.09
34370;BME280;20635;55.812;37.560;2023-08-12T08:11:36;99610.41;;;26.20;60.26
34370;BME280;20635;55.812;37.560;2023-08-12T08:14:02;99614.06;;;26.21;60.55
34370;BME280;20635;55.812;37.560;2023-08-12T08:16:28;99600.00;;;26.21;60.43
34370;BME280;20635;55.812;37.560;2023-08-12T08:18:54;99599.66;;;26.22;60.43
34370;BME280;20635;55.812;37.560;2023-08-12T08:21:20;99587.25;;;26.23;60.23
34370;BME280;20635;55.812;37.560;2023-08-12T08:23:46;99574.84;;;26.24;60.22
34370;BME280;20635;55.812;37.560;2023-08-12T08:26:12;99549.56;;;26.24;60.35
34370;BME280;20635;55.812;37.560;2023-08-12T08:28:38;99552.88;;;26.26;60.38
34370;BME280;20635;55.812;37.560;2023-08-12T08:31:04;99564.94;;;26.27;60.66
34370;BME280;20635;55.812;37.560;2023-08-12T08:33:30;99564.94;;;26.27;60.59
34370;BME280;20635;55.812;37.560;2023-08-12T08:35:56;99564.59;;;26.28;60.75
34370;BME280;20635;55.812;37.560;2023-08-12T08:38:22;99567.06;;;26.30;60.61
34370;BME280;20635;55.812;37.560;2023-08-12T08:40:51;99559.09;;;26.32;60.81
34370;BME280;20635;55.812;37.560;2023-08-12T08:43:21;99548.69;;;26.33;60.65
34370;BME280;20635;55.812;37.560;2023-08-12T08:45:52;99546.69;;;26.33;60.76
34370;BME280;20635;55.812;37.560;2023-08-12T08:48:19;99550.69;;;26.32;60.79
34370;BME280;20635;55.812;37.560;2023-08-12T08:50:46;99573.63;;;26.34;60.50
34370;BME280;20635;55.812;37.560;2023-08-12T08:53:12;99586.53;;;26.35;60.51
34370;BME280;20635;55.812;37.560;2023-08-12T08:55:41;99598.59;;;26.36;60.75
34370;BME280;20635;55.812;37.560;2023-08-12T08:58:07;99597.75;;;26.35;60.57
34370;BME280;20635;55.812;37.560;2023-08-12T09:00:33;99595.44;;;26.37;60.33
34370;BME280;20635;55.812;37.560;2023-08-12T09:02:59;99587.81;;;26.38;60.65
34370;BME280;20635;55.812;37.560;2023-08-12T09:05:25;99582.19;;;26.38;60.66
34370;BME280;20635;55.812;37.560;2023-08-12T09:07:54;99581.03;;;26.39;60.49
34370;BME280;20635;55.812;37.560;2023-08-12T09:10:21;99583.50;;;26.40;60.57
34370;BME280;20635;55.812;37.560;2023-08-12T09:12:47;99590.78;;;26.41;60.71
34370;BME280;20635;55.812;37.560;2023-08-12T09:15:15;99585.97;;;26.42;60.74
34370;BME280;20635;55.812;37.560;2023-08-12T09:17:42;99588.47;;;26.43;60.76
34370;BME280;20635;55.812;37.560;2023-08-12T09:20:07;99576.38;;;26.43;60.82
34370;BME280;20635;55.812;37.560;2023-08-12T09:22:40;99585.31;;;26.45;60.70
34370;BME280;20635;55.812;37.560;2023-08-12T09:25:08;99592.13;;;26.44;60.37
34370;BME280;20635;55.812;37.560;2023-08-12T09:27:35;99581.34;;;26.46;60.43
34370;BME280;20635;55.812;37.560;2023-08-12T09:30:03;99587.78;;;26.46;60.32
34370;BME280;20635;55.812;37.560;2023-08-12T09:32:29;99601.00;;;26.46;60.31
34370;BME280;20635;55.812;37.560;2023-08-12T09:34:55;99611.91;;;26.47;60.45
34370;BME280;20635;55.812;37.560;2023-08-12T09:37:23;99631.56;;;26.47;60.65
34370;BME280;20635;55.812;37.560;2023-08-12T09:39:51;99631.25;;;26.49;60.62
34370;BME280;20635;55.812;37.560;2023-08-12T09:42:17;99617.19;;;26.49;60.37
34370;BME280;20635;55.812;37.560;2023-08-12T09:44:44;99625.63;;;26.49;60.35
34370;BME280;20635;55.812;37.560;2023-08-12T09:47:10;99618.00;;;26.49;60.53
34370;BME280;20635;55.812;37.560;2023-08-12T09:49:38;99621.66;;;26.50;60.61
34370;BME280;20635;55.812;37.560;2023-08-12T09:52:04;99629.72;;;26.51;60.33
34370;BME280;20635;55.812;37.560;2023-08-12T09:54:31;99614.84;;;26.51;60.30
34370;BME280;20635;55.812;37.560;2023-08-12T09:56:59;99601.63;;;26.51;60.30
34370;BME280;20635;55.812;37.560;2023-08-12T09:59:34;99596.16;;;26.55;60.40
34370;BME280;20635;55.812;37.560;2023-08-12T10:02:02;99592.03;;;26.52;60.66
34370;BME280;20635;55.812;37.560;2023-08-12T10:04:44;99600.28;;;26.58;60.14
34370;BME280;20635;55.812;37.560;2023-08-12T10:07:11;99586.91;;;26.54;60.55
34370;BME280;20635;55.812;37.560;2023-08-12T10:09:40;99575.66;;;26.54;60.57
34370;BME280;20635;55.812;37.560;2023-08-12T10:12:08;99569.22;;;26.54;60.17
34370;BME280;20635;55.812;37.560;2023-08-12T10:14:35;99576.47;;;26.55;60.51
34370;BME280;20635;55.812;37.560;2023-08-12T10:17:01;99580.91;;;26.56;60.34
34370;BME280;20635;55.812;37.560;2023-08-12T10:19:28;99592.16;;;26.56;60.23
34370;BME280;20635;55.812;37.560;2023-08-12T10:21:56;99587.72;;;26.55;60.14
34370;BME280;20635;55.812;37.560;2023-08-12T10:24:27;99588.19;;;26.57;60.24
34370;BME280;20635;55.812;37.560;2023-08-12T10:26:53;99590.16;;;26.56;60.56
34370;BME280;20635;55.812;37.560;2023-08-12T10:29:22;99586.22;;;26.58;60.20
34370;BME280;20635;55.812;37.560;2023-08-12T10:31:48;99585.03;;;26.59;60.60
34370;BME280;20635;55.812;37.560;2023-08-12T10:34:24;99589.16;;;26.61;60.29
34370;BME280;20635;55.812;37.560;2023-08-12T10:36:57;99601.22;;;26.62;60.46
34370;BME280;20635;55.812;37.560;2023-08-12T10:39:26;99590.66;;;26.59;60.50
34370;BME280;20635;55.812;37.560;2023-08-12T10:41:55;99575.44;;;26.60;60.30
34370;BME280;20635;55.812;37.560;2023-08-12T10:44:22;99583.88;;;26.60;60.50
34370;BME280;20635;55.812;37.560;2023-08-12T10:46:52;99577.09;;;26.61;60.16
34370;BME280;20635;55.812;37.560;2023-08-12T10:49:20;99576.25;;;26.60;60.17
34370;BME280;20635;55.812;37.560;2023-08-12T10:51:52;99571.47;;;26.61;60.41
34370;BME280;20635;55.812;37.560;2023-08-12T10:59:56;99566.13;;;26.68;59.93
34370;BME280;20635;55.812;37.560;2023-08-12T11:07:44;99580.53;;;26.66;60.09
34370;BME280;20635;55.812;37.560;2023-08-12T11:13:03;99621.31;;;26.72;60.03
34370;BME280;20635;55.812;37.560;2023-08-12T11:15:35;99621.50;;;26.67;60.31
34370;BME280;20635;55.812;37.560;2023-08-12T11:18:12;99633.56;;;26.68;60.48
34370;BME280;20635;55.812;37.560;2023-08-12T11:20:39;99623.00;;;26.65;60.39
34370;BME280;20635;55.812;37.560;2023-08-12T11:23:06;99613.75;;;26.64;60.55
34370;BME280;20635;55.812;37.560;2023-08-12T11:25:33;99606.16;;;26.65;60.28
34370;BME280;20635;55.812;37.560;2023-08-12T11:27:59;99618.22;;;26.65;60.04
34370;BME280;20635;55.812;37.560;2023-08-12T11:30:25;99632.25;;;26.65;60.34
34370;BME280;20635;55.812;37.560;2023-08-12T11:32:53;99631.44;;;26.65;60.04
34370;BME280;20635;55.812;37.560;2023-08-12T11:35:21;99628.63;;;26.65;60.05
34370;BME280;20635;55.812;37.560;2023-08-12T11:37:49;99627.47;;;26.66;60.39
34370;BME280;20635;55.812;37.560;2023-08-12T11:40:17;99621.84;;;26.66;60.46
34370;BME280;20635;55.812;37.560;2023-08-12T11:42:44;99616.22;;;26.66;60.48
34370;BME280;20635;55.812;37.560;2023-08-12T11:45:11;99601.84;;;26.67;60.39
34370;BME280;20635;55.812;37.560;2023-08-12T11:47:39;99604.66;;;26.67;60.42
34370;BME280;20635;55.812;37.560;2023-08-12T11:50:09;99610.28;;;26.67;60.18
34370;BME280;20635;55.812;37.560;2023-08-12T11:52:36;99610.28;;;26.67;60.16
34370;BME280;20635;55.812;37.560;2023-08-12T11:55:03;99604.28;;;26.69;60.30
34370;BME280;20635;55.812;37.560;2023-08-12T11:57:29;99599.84;;;26.68;60.21
34370;BME280;20635;55.812;37.560;2023-08-12T11:59:59;99587.06;;;26.70;60.15
34370;BME280;20635;55.812;37.560;2023-08-12T12:02:26;99583.81;;;26.68;60.43
34370;BME280;20635;55.812;37.560;2023-08-12T12:04:52;99571.75;;;26.68;60.31
34370;BME280;20635;55.812;37.560;2023-08-12T12:07:20;99578.19;;;26.68;60.06
34370;BME280;20635;55.812;37.560;2023-08-12T12:09:50;99578.19;;;26.68;60.21
34370;BME280;20635;55.812;37.560;2023-08-12T12:12:16;99584.63;;;26.69;60.24
34370;BME280;20635;55.812;37.560;2023-08-12T12:14:42;99580.63;;;26.70;60.25
34370;BME280;20635;55.812;37.560;2023-08-12T12:17:08;99577.81;;;26.70;60.28
34370;BME280;20635;55.812;37.560;2023-08-12T12:19:40;99579.00;;;26.69;60.34
34370;BME280;20635;55.812;37.560;2023-08-12T12:22:06;99568.25;;;26.71;60.24
34370;BME280;20635;55.812;37.560;2023-08-12T12:24:44;99547.88;;;26.74;60.09
34370;BME280;20635;55.812;37.560;2023-08-12T12:27:11;99534.53;;;26.71;60.29
34370;BME280;20635;55.812;37.560;2023-08-12T12:29:37;99515.66;;;26.71;60.43
34370;BME280;20635;55.812;37.560;2023-08-12T12:32:02;99514.84;;;26.71;60.35
34370;BME280;20635;55.812;37.560;2023-08-12T12:34:28;99514.00;;;26.70;60.27
34370;BME280;20635;55.812;37.560;2023-08-12T12:36:54;99504.41;;;26.71;60.52
34370;BME280;20635;55.812;37.560;2023-08-12T12:39:20;99491.50;;;26.70;60.46
34370;BME280;20635;55.812;37.560;2023-08-12T12:41:48;99498.78;;;26.71;60.37
34370;BME280;20635;55.812;37.560;2023-08-12T12:44:14;99477.13;;;26.72;60.55
34370;BME280;20635;55.812;37.560;2023-08-12T12:46:40;99457.78;;;26.70;60.50
34370;BME280;20635;55.812;37.560;2023-08-12T12:49:06;99450.66;;;26.73;60.31
34370;BME280;20635;55.812;37.560;2023-08-12T12:51:32;99440.59;;;26.72;60.26
34370;BME280;20635;55.812;37.560;2023-08-12T12:53:58;99484.38;;;26.73;60.38
34370;BME280;20635;55.812;37.560;2023-08-12T12:56:24;99504.41;;;26.71;60.42
34370;BME280;20635;55.812;37.560;2023-08-12T12:58:50;99532.19;;;26.73;60.41
34370;BME280;20635;55.812;37.560;2023-08-12T13:01:16;99537.78;;;26.73;60.31